Time;durP1;ratioP1;P1;durP2;ratioP2;P2;SDS_P1;SDS_P2;PMS_P1;PMS_P2;Temp;Humidity;BMP_temperature;BMP_pressure;BME280_temperature;BME280_humidity;BME280_pressure;Samples;Min_cycle;Max_cycle;Signal;HPM_P1;HPM_P2
2023/10/10 00:00:35;;;;;;;12.47;6.40;;;;;;;;;;5072551;28;20586;-66
2023/10/10 00:03:08;;;;;;;8.87;5.73;;;;;;;;;;5071436;28;20599;-66
2023/10/10 00:05:37;;;;;;;12.27;6.00;;;;;;;;;;5071469;28;20593;-67
2023/10/10 00:08:11;;;;;;;11.50;6.20;;;;;;;;;;5072449;28;20615;-66
2023/10/10 00:10:50;;;;;;;15.10;5.83;;;;;;;;;;5072300;28;21001;-66
2023/10/10 00:13:20;;;;;;;10.57;5.87;;;;;;;;;;5071996;28;20610;-66
2023/10/10 00:15:55;;;;;;;6.63;4.60;;;;;;;;;;5082788;28;20588;-66
2023/10/10 00:18:29;;;;;;;11.10;6.10;;;;;;;;;;5074082;28;21130;-66
2023/10/10 00:21:08;;;;;;;14.90;5.07;;;;;;;;;;5092329;28;20560;-66
2023/10/10 00:23:42;;;;;;;13.70;5.93;;;;;;;;;;5092157;28;20577;-67
2023/10/10 00:26:14;;;;;;;8.97;5.60;;;;;;;;;;5085564;28;21278;-66
2023/10/10 00:28:53;;;;;;;9.13;6.03;;;;;;;;;;5072784;28;20884;-66
2023/10/10 00:31:22;;;;;;;10.67;5.90;;;;;;;;;;5078113;28;20597;-66
2023/10/10 00:33:52;;;;;;;12.17;6.37;;;;;;;;;;5083190;28;21232;-66
2023/10/10 00:36:31;;;;;;;13.00;6.90;;;;;;;;;;5089729;28;20627;-66
2023/10/10 00:39:05;;;;;;;13.80;6.20;;;;;;;;;;5072579;28;20671;-66
2023/10/10 00:41:42;;;;;;;8.93;5.20;;;;;;;;;;5082113;28;20956;-66
2023/10/10 00:44:12;;;;;;;9.00;6.30;;;;;;;;;;5079024;28;20645;-66
2023/10/10 00:46:41;;;;;;;9.17;6.13;;;;;;;;;;5054761;28;20662;-66
2023/10/10 00:49:13;;;;;;;10.47;5.57;;;;;;;;;;5072315;28;20621;-66
2023/10/10 00:51:46;;;;;;;13.83;5.73;;;;;;;;;;5072705;28;20584;-66
2023/10/10 00:54:25;;;;;;;11.40;6.30;;;;;;;;;;5072496;28;20569;-66
2023/10/10 00:56:54;;;;;;;9.60;6.00;;;;;;;;;;5072747;28;20561;-66
2023/10/10 00:59:28;;;;;;;9.87;6.17;;;;;;;;;;5054604;28;20606;-66
2023/10/10 01:01:56;;;;;;;10.93;5.40;;;;;;;;;;5071503;28;21122;-66
2023/10/10 01:04:35;;;;;;;9.70;6.00;;;;;;;;;;5071008;28;20633;-66
2023/10/10 01:07:07;;;;;;;18.43;6.23;;;;;;;;;;5072232;28;20612;-66
2023/10/10 01:09:39;;;;;;;12.47;6.80;;;;;;;;;;5071961;28;20564;-66
2023/10/10 01:12:09;;;;;;;9.43;4.80;;;;;;;;;;5051011;28;20643;-66
2023/10/10 01:14:38;;;;;;;8.50;5.30;;;;;;;;;;5052636;28;20940;-66
2023/10/10 01:17:11;;;;;;;9.13;5.77;;;;;;;;;;5052755;28;21116;-66
2023/10/10 01:19:44;;;;;;;10.70;5.50;;;;;;;;;;5052384;28;20553;-66
2023/10/10 01:22:22;;;;;;;7.70;5.10;;;;;;;;;;5052380;28;20587;-66
2023/10/10 01:24:54;;;;;;;9.70;6.33;;;;;;;;;;5051956;28;21221;-66
2023/10/10 01:27:23;;;;;;;12.40;5.77;;;;;;;;;;5050918;28;20617;-66
2023/10/10 01:30:16;;;;;;;10.17;5.83;;;;;;;;;;5051662;28;20589;-66
2023/10/10 01:32:40;;;;;;;9.10;5.37;;;;;;;;;;5052177;28;20625;-66
2023/10/10 01:35:16;;;;;;;9.87;5.50;;;;;;;;;;5052092;28;20607;-66
2023/10/10 01:37:54;;;;;;;10.57;6.13;;;;;;;;;;5052459;28;20693;-66
2023/10/10 01:40:24;;;;;;;7.93;6.10;;;;;;;;;;5050449;28;20579;-66
2023/10/10 01:42:53;;;;;;;15.73;6.60;;;;;;;;;;5052183;28;20605;-66
2023/10/10 01:45:26;;;;;;;12.97;5.90;;;;;;;;;;5050748;28;20639;-66
2023/10/10 01:47:57;;;;;;;11.13;5.67;;;;;;;;;;5055800;28;21219;-66
2023/10/10 01:50:26;;;;;;;7.70;5.80;;;;;;;;;;5071906;28;21106;-66
2023/10/10 01:52:56;;;;;;;9.30;5.60;;;;;;;;;;5072466;28;20580;-66
2023/10/10 01:55:25;;;;;;;8.93;5.90;;;;;;;;;;5071446;28;20719;-66
2023/10/10 01:57:55;;;;;;;11.67;5.90;;;;;;;;;;5072197;28;20569;-66
2023/10/10 02:00:26;;;;;;;8.60;5.77;;;;;;;;;;5053744;28;20620;-66
2023/10/10 02:02:55;;;;;;;12.27;6.07;;;;;;;;;;5070468;28;20586;-66
2023/10/10 02:05:44;;;;;;;11.00;6.23;;;;;;;;;;5065068;28;20633;-66
2023/10/10 02:08:17;;;;;;;11.87;6.27;;;;;;;;;;5050877;28;20687;-66
2023/10/10 02:10:46;;;;;;;14.57;6.30;;;;;;;;;;5036995;28;20634;-66
2023/10/10 02:13:14;;;;;;;9.83;5.43;;;;;;;;;;5071659;28;20553;-66
2023/10/10 02:15:42;;;;;;;10.83;6.37;;;;;;;;;;5053630;28;20587;-66
2023/10/10 02:18:13;;;;;;;9.83;5.70;;;;;;;;;;5071223;28;21160;-66
2023/10/10 02:20:51;;;;;;;11.00;6.07;;;;;;;;;;5075280;28;20557;-66
2023/10/10 02:23:31;;;;;;;12.10;5.57;;;;;;;;;;5086487;28;21132;-66
2023/10/10 02:26:03;;;;;;;13.53;6.17;;;;;;;;;;5095303;28;20592;-66
2023/10/10 02:28:49;;;;;;;9.40;6.30;;;;;;;;;;5095319;28;20641;-66
2023/10/10 02:31:19;;;;;;;11.00;6.30;;;;;;;;;;5077523;28;20579;-66
2023/10/10 02:33:55;;;;;;;12.83;6.47;;;;;;;;;;5095277;28;20598;-66
2023/10/10 02:36:30;;;;;;;10.23;6.33;;;;;;;;;;5095394;28;20572;-66
2023/10/10 02:39:18;;;;;;;9.50;6.80;;;;;;;;;;5076324;28;20562;-66
2023/10/10 02:41:50;;;;;;;10.20;6.03;;;;;;;;;;5094966;28;20552;-66
2023/10/10 02:44:38;;;;;;;14.27;6.17;;;;;;;;;;5090831;28;20658;-66
2023/10/10 02:47:06;;;;;;;10.17;5.23;;;;;;;;;;5077229;28;20607;-66
2023/10/10 02:49:37;;;;;;;17.17;6.50;;;;;;;;;;5094706;28;20621;-66
2023/10/10 02:52:07;;;;;;;12.57;7.07;;;;;;;;;;5094707;28;20911;-66
2023/10/10 02:54:43;;;;;;;11.83;6.27;;;;;;;;;;5095192;28;20905;-66
2023/10/10 02:57:31;;;;;;;9.63;5.73;;;;;;;;;;5094020;28;20595;-66
2023/10/10 03:00:15;;;;;;;13.83;6.50;;;;;;;;;;5094423;28;21132;-66
2023/10/10 03:02:49;;;;;;;19.83;6.40;;;;;;;;;;5093208;28;20568;-65
2023/10/10 03:05:29;;;;;;;15.67;6.83;;;;;;;;;;5075892;28;20573;-65
2023/10/10 03:07:58;;;;;;;11.20;6.07;;;;;;;;;;5075269;28;20629;-65
2023/10/10 03:10:38;;;;;;;8.20;6.43;;;;;;;;;;5094461;28;20598;-65
2023/10/10 03:13:27;;;;;;;10.13;6.33;;;;;;;;;;5076245;28;20916;-65
2023/10/10 03:16:10;;;;;;;13.70;7.03;;;;;;;;;;5095133;28;20585;-65
2023/10/10 03:18:52;;;;;;;12.07;7.57;;;;;;;;;;5094109;28;20927;-65
2023/10/10 03:21:25;;;;;;;13.20;8.03;;;;;;;;;;5076698;28;20584;-66
2023/10/10 03:23:54;;;;;;;11.90;7.70;;;;;;;;;;5093814;28;20972;-65
2023/10/10 03:29:36;;;;;;;11.47;7.10;;;;;;;;;;5094174;28;20600;-65
2023/10/10 03:34:57;;;;;;;12.73;7.50;;;;;;;;;;5073033;28;20685;-65
2023/10/10 03:37:30;;;;;;;13.23;7.80;;;;;;;;;;5075834;28;20597;-65
2023/10/10 03:40:09;;;;;;;14.35;8.90;;;;;;;;;;5076024;28;20575;-66
2023/10/10 05:25:24;;;;;;;13.95;7.28;;;;;;;;;;5047516;28;20611;-65
2023/10/10 05:27:58;;;;;;;9.30;6.03;;;;;;;;;;5062604;28;20223;-65
2023/10/10 05:30:27;;;;;;;13.37;8.20;;;;;;;;;;5082230;28;20592;-65
2023/10/10 05:33:01;;;;;;;20.83;7.23;;;;;;;;;;5084829;28;20631;-65
2023/10/10 05:35:30;;;;;;;13.87;6.30;;;;;;;;;;5072077;28;20894;-65
2023/10/10 05:38:00;;;;;;;17.33;7.27;;;;;;;;;;5086720;28;20610;-65
2023/10/10 05:40:33;;;;;;;17.50;7.80;;;;;;;;;;5091744;28;20568;-65
2023/10/10 05:43:02;;;;;;;14.30;6.43;;;;;;;;;;5092520;28;20641;-65
2023/10/10 05:45:31;;;;;;;15.10;6.82;;;;;;;;;;5089147;28;20658;-65
2023/10/10 05:47:59;;;;;;;13.07;6.82;;;;;;;;;;5086381;28;20219;-65
2023/10/10 05:50:27;;;;;;;13.55;6.85;;;;;;;;;;5062187;28;20565;-65
2023/10/10 05:52:56;;;;;;;20.03;7.00;;;;;;;;;;5072419;28;20206;-65
2023/10/10 05:55:25;;;;;;;16.38;7.03;;;;;;;;;;5074395;28;20614;-65
2023/10/10 05:57:55;;;;;;;18.35;6.90;;;;;;;;;;5083246;28;20745;-71
2023/10/10 06:00:26;;;;;;;10.10;6.57;;;;;;;;;;5082314;28;20204;-71
2023/10/10 06:02:54;;;;;;;19.27;7.85;;;;;;;;;;5091600;28;20195;-69
2023/10/10 06:05:23;;;;;;;22.15;8.10;;;;;;;;;;5085737;28;20577;-68
2023/10/10 06:07:51;;;;;;;10.98;6.88;;;;;;;;;;5095121;28;20206;-70
2023/10/10 06:10:19;;;;;;;17.58;6.10;;;;;;;;;;5091889;28;20639;-69
2023/10/10 06:12:49;;;;;;;9.93;6.30;;;;;;;;;;5076867;28;20211;-70
2023/10/10 06:15:18;;;;;;;12.68;7.78;;;;;;;;;;5088317;28;20633;-71
2023/10/10 06:17:46;;;;;;;12.13;7.07;;;;;;;;;;5094527;28;20203;-72
2023/10/10 06:20:16;;;;;;;12.80;6.87;;;;;;;;;;5094596;28;20693;-71
2023/10/10 06:22:45;;;;;;;17.48;8.18;;;;;;;;;;5092298;28;21187;-72
2023/10/10 06:25:17;;;;;;;15.77;7.38;;;;;;;;;;5074836;28;20211;-71
2023/10/10 06:27:45;;;;;;;20.98;7.65;;;;;;;;;;5074023;28;20188;-70
2023/10/10 06:30:18;;;;;;;19.50;11.20;;;;;;;;;;5074391;28;20224;-66
2023/10/10 06:32:46;;;;;;;11.98;8.13;;;;;;;;;;5091087;28;20191;-66
2023/10/10 06:35:27;;;;;;;11.77;7.18;;;;;;;;;;5094471;28;20210;-65
2023/10/10 06:37:58;;;;;;;12.70;7.43;;;;;;;;;;5094119;28;20553;-65
2023/10/10 06:40:29;;;;;;;15.53;8.47;;;;;;;;;;5080379;28;20596;-65
2023/10/10 06:42:57;;;;;;;17.80;7.93;;;;;;;;;;5056027;28;20649;-66
2023/10/10 06:45:34;;;;;;;13.40;6.90;;;;;;;;;;5080020;28;20211;-66
2023/10/10 06:48:03;;;;;;;13.97;7.33;;;;;;;;;;5093974;28;20587;-66
2023/10/10 06:50:31;;;;;;;10.00;7.27;;;;;;;;;;5094280;28;20632;-65
2023/10/10 06:53:00;;;;;;;19.03;7.37;;;;;;;;;;5093784;28;21040;-65
2023/10/10 06:55:36;;;;;;;10.53;7.30;;;;;;;;;;5093637;28;21012;-65
2023/10/10 06:58:05;;;;;;;16.40;6.83;;;;;;;;;;5089282;28;20605;-66
2023/10/10 07:00:44;;;;;;;11.80;7.30;;;;;;;;;;5093637;28;20617;-64
2023/10/10 07:03:18;;;;;;;10.07;6.83;;;;;;;;;;5073739;28;20577;-66
2023/10/10 07:05:48;;;;;;;9.63;5.63;;;;;;;;;;5073070;28;20584;-64
2023/10/10 07:08:24;;;;;;;9.93;6.30;;;;;;;;;;5093067;28;20971;-65
2023/10/10 07:10:53;;;;;;;13.40;6.47;;;;;;;;;;5075264;28;21211;-64
2023/10/10 07:13:29;;;;;;;13.13;6.90;;;;;;;;;;5091364;28;21172;-65
2023/10/10 07:15:58;;;;;;;14.30;6.70;;;;;;;;;;5072875;28;21137;-64
2023/10/10 07:18:27;;;;;;;15.70;7.07;;;;;;;;;;5072843;28;20613;-65
2023/10/10 07:23:41;;;;;;;11.37;6.20;;;;;;;;;;5070277;28;20630;-65
2023/10/10 07:26:18;;;;;;;11.00;6.40;;;;;;;;;;5073233;28;20587;-65
2023/10/10 07:28:52;;;;;;;11.83;5.67;;;;;;;;;;5072779;28;20616;-65
2023/10/10 07:31:22;;;;;;;13.57;6.23;;;;;;;;;;5080285;28;20601;-66
2023/10/10 07:34:03;;;;;;;17.40;6.57;;;;;;;;;;5092276;28;20640;-65
2023/10/10 07:36:32;;;;;;;13.00;7.50;;;;;;;;;;5092947;28;20928;-65
2023/10/10 07:41:48;;;;;;;9.73;7.43;;;;;;;;;;5068035;28;20599;-64
2023/10/10 07:44:19;;;;;;;11.13;6.60;;;;;;;;;;5092512;28;21218;-65
2023/10/10 07:49:31;;;;;;;19.73;7.20;;;;;;;;;;5087395;28;20661;-66
2023/10/10 07:52:03;;;;;;;12.83;6.37;;;;;;;;;;5092928;28;20556;-66
2023/10/10 07:54:38;;;;;;;8.97;6.30;;;;;;;;;;5092489;28;20576;-66
2023/10/10 07:57:12;;;;;;;16.93;6.90;;;;;;;;;;5092701;28;20970;-67
2023/10/10 07:59:40;;;;;;;9.43;6.10;;;;;;;;;;5072434;28;20571;-67
2023/10/10 08:02:24;;;;;;;12.17;6.60;;;;;;;;;;5070732;28;21175;-67
2023/10/10 08:04:53;;;;;;;11.77;5.37;;;;;;;;;;5072366;28;20609;-66
2023/10/10 08:07:23;;;;;;;11.30;6.33;;;;;;;;;;5076440;28;21236;-66
2023/10/10 08:10:13;;;;;;;15.23;6.33;;;;;;;;;;5092787;28;20603;-66
2023/10/10 08:12:41;;;;;;;14.20;6.30;;;;;;;;;;5091711;28;20599;-66
2023/10/10 08:15:25;;;;;;;14.07;6.20;;;;;;;;;;5092540;28;20652;-66
2023/10/10 08:17:55;;;;;;;9.43;5.50;;;;;;;;;;5091128;28;20630;-67
2023/10/10 08:20:34;;;;;;;12.50;5.97;;;;;;;;;;5092412;28;20964;-67
2023/10/10 08:23:03;;;;;;;11.80;6.23;;;;;;;;;;5092165;28;20577;-66
2023/10/10 08:25:32;;;;;;;13.57;7.20;;;;;;;;;;5088216;28;20621;-66
2023/10/10 08:28:00;;;;;;;11.77;6.80;;;;;;;;;;5071053;28;20618;-66
2023/10/10 08:30:29;;;;;;;13.27;6.13;;;;;;;;;;5072191;28;20658;-66
2023/10/10 08:32:59;;;;;;;10.27;6.33;;;;;;;;;;5071099;28;20618;-66
2023/10/10 08:35:29;;;;;;;12.40;6.20;;;;;;;;;;5071667;28;20924;-66
2023/10/10 08:37:57;;;;;;;15.10;6.40;;;;;;;;;;5071430;28;21044;-66
2023/10/10 08:40:30;;;;;;;12.87;6.43;;;;;;;;;;5072226;28;20949;-66
2023/10/10 08:42:58;;;;;;;8.73;5.47;;;;;;;;;;5080898;28;20641;-66
2023/10/10 08:45:26;;;;;;;10.27;6.53;;;;;;;;;;5090981;28;21198;-66
2023/10/10 08:48:00;;;;;;;11.17;6.40;;;;;;;;;;5091384;28;21160;-66
2023/10/10 08:50:32;;;;;;;18.90;7.10;;;;;;;;;;5092073;28;20663;-66
2023/10/10 08:53:02;;;;;;;11.63;6.50;;;;;;;;;;5091500;28;20573;-66
2023/10/10 08:55:34;;;;;;;9.70;6.13;;;;;;;;;;5091741;28;20602;-66
2023/10/10 08:58:02;;;;;;;8.53;5.97;;;;;;;;;;5092139;28;20605;-66
2023/10/10 09:00:30;;;;;;;10.80;6.10;;;;;;;;;;5076790;28;20618;-65
2023/10/10 09:02:59;;;;;;;13.47;6.63;;;;;;;;;;5070935;28;20613;-67
2023/10/10 09:05:28;;;;;;;13.13;6.80;;;;;;;;;;5074812;28;21197;-66
2023/10/10 09:08:06;;;;;;;12.57;7.13;;;;;;;;;;5091637;28;21567;-66
2023/10/10 09:10:39;;;;;;;17.23;7.17;;;;;;;;;;5091919;28;20629;-66
2023/10/10 09:13:09;;;;;;;8.70;6.80;;;;;;;;;;5091621;28;20589;-66
2023/10/10 09:15:40;;;;;;;11.27;6.30;;;;;;;;;;5071754;28;20607;-65
2023/10/10 09:18:17;;;;;;;15.63;6.28;;;;;;;;;;5083360;28;20798;-66
2023/10/10 09:20:46;;;;;;;9.43;6.63;;;;;;;;;;5091945;28;20191;-66
2023/10/10 09:23:23;;;;;;;14.63;7.07;;;;;;;;;;5069618;28;21175;-65
2023/10/10 09:26:04;;;;;;;11.70;6.03;;;;;;;;;;5077085;28;21168;-66
2023/10/10 09:28:44;;;;;;;13.70;6.70;;;;;;;;;;5084530;28;20620;-67
2023/10/10 09:31:20;;;;;;;16.93;7.00;;;;;;;;;;5081755;28;20653;-66
2023/10/10 09:33:54;;;;;;;11.43;7.37;;;;;;;;;;5093378;28;21011;-67
2023/10/10 09:36:26;;;;;;;11.83;6.17;;;;;;;;;;5075882;28;20580;-67
2023/10/10 09:39:08;;;;;;;11.73;7.60;;;;;;;;;;5075626;28;20594;-67
2023/10/10 09:42:00;;;;;;;11.70;6.47;;;;;;;;;;5075647;28;20889;-66
2023/10/10 09:44:49;;;;;;;8.70;6.20;;;;;;;;;;5056577;28;20653;-66
2023/10/10 09:47:36;;;;;;;11.20;5.80;;;;;;;;;;5091091;28;20636;-65
2023/10/10 09:52:53;;;;;;;16.30;7.20;;;;;;;;;;5057478;28;20613;-65
2023/10/10 09:55:39;;;;;;;13.13;7.90;;;;;;;;;;5073649;28;20578;-67
2023/10/10 09:58:24;;;;;;;10.10;7.00;;;;;;;;;;5057823;28;20926;-67
2023/10/10 10:00:52;;;;;;;21.53;7.37;;;;;;;;;;5074240;28;20588;-66
2023/10/10 10:03:35;;;;;;;17.90;7.70;;;;;;;;;;5080745;28;20682;-65
2023/10/10 10:06:34;;;;;;;14.30;7.73;;;;;;;;;;5094078;28;20581;-66
2023/10/10 10:09:08;;;;;;;14.83;7.67;;;;;;;;;;5095029;28;20613;-67
2023/10/10 10:11:43;;;;;;;14.87;7.67;;;;;;;;;;5072953;28;20684;-67
2023/10/10 10:14:18;;;;;;;10.40;7.90;;;;;;;;;;5074469;28;20581;-66
2023/10/10 10:16:48;;;;;;;11.40;7.40;;;;;;;;;;5073348;28;20581;-67
2023/10/10 10:19:17;;;;;;;14.57;8.07;;;;;;;;;;5055003;28;20583;-67
2023/10/10 10:21:54;;;;;;;16.43;7.77;;;;;;;;;;5068447;28;20628;-67
2023/10/10 10:24:30;;;;;;;12.57;8.27;;;;;;;;;;5073570;28;20977;-65
2023/10/10 10:27:21;;;;;;;14.27;7.40;;;;;;;;;;5055661;28;21207;-67
2023/10/10 10:30:07;;;;;;;20.10;8.13;;;;;;;;;;5054209;28;20622;-67
2023/10/10 10:32:37;;;;;;;15.33;9.10;;;;;;;;;;5054280;28;21588;-66
2023/10/10 10:35:12;;;;;;;17.57;8.03;;;;;;;;;;5054181;28;20615;-65
2023/10/10 10:37:43;;;;;;;11.47;7.90;;;;;;;;;;5056890;28;20655;-66
2023/10/10 10:40:24;;;;;;;15.50;8.57;;;;;;;;;;5053717;28;20602;-66
2023/10/10 10:42:57;;;;;;;8.17;7.30;;;;;;;;;;5054263;28;20672;-67
2023/10/10 10:45:33;;;;;;;17.17;10.20;;;;;;;;;;5060457;28;20628;-65
2023/10/10 10:48:06;;;;;;;19.93;9.10;;;;;;;;;;5071567;28;20601;-67
2023/10/10 10:50:45;;;;;;;19.47;9.60;;;;;;;;;;5074744;28;20653;-66
2023/10/10 10:53:35;;;;;;;24.20;10.67;;;;;;;;;;5066070;28;20606;-64
2023/10/10 11:01:36;;;;;;;12.70;8.67;;;;;;;;;;5064009;28;20626;-66
2023/10/10 11:04:05;;;;;;;18.60;9.60;;;;;;;;;;5063476;28;21211;-66
2023/10/10 11:06:33;;;;;;;14.53;9.40;;;;;;;;;;5060364;28;20618;-66
2023/10/10 11:09:23;;;;;;;22.00;9.43;;;;;;;;;;5060771;28;20611;-66
2023/10/10 11:11:57;;;;;;;19.37;9.20;;;;;;;;;;5076367;28;20661;-66
2023/10/10 11:14:29;;;;;;;20.10;10.20;;;;;;;;;;5083740;28;20610;-66
2023/10/10 11:16:57;;;;;;;9.57;8.07;;;;;;;;;;5063860;28;20606;-67
2023/10/10 11:19:38;;;;;;;14.00;9.30;;;;;;;;;;5081588;28;20662;-66
2023/10/10 11:22:12;;;;;;;14.97;8.50;;;;;;;;;;5089422;28;20604;-67
2023/10/10 11:24:46;;;;;;;10.30;8.20;;;;;;;;;;5082942;28;20595;-66
2023/10/10 11:27:16;;;;;;;10.23;9.00;;;;;;;;;;5080284;28;21253;-67
2023/10/10 11:29:47;;;;;;;14.43;9.27;;;;;;;;;;5081955;28;20609;-66
2023/10/10 11:32:23;;;;;;;10.70;9.33;;;;;;;;;;5082430;28;20645;-67
2023/10/10 11:34:55;;;;;;;11.80;9.50;;;;;;;;;;5082618;28;20610;-66
2023/10/10 11:37:30;;;;;;;10.50;9.40;;;;;;;;;;5082829;28;20669;-67
2023/10/10 11:40:30;;;;;;;12.50;8.80;;;;;;;;;;5067709;28;20739;-65
2023/10/10 11:43:03;;;;;;;15.70;10.53;;;;;;;;;;5081406;28;20233;-66
2023/10/10 11:45:39;;;;;;;12.80;9.23;;;;;;;;;;5089469;28;20609;-65
2023/10/10 11:48:12;;;;;;;10.70;9.60;;;;;;;;;;5072758;28;20673;-67
2023/10/10 11:50:47;;;;;;;11.10;10.10;;;;;;;;;;5092560;28;21194;-66
2023/10/10 11:53:23;;;;;;;12.33;9.90;;;;;;;;;;5091544;28;20603;-66
2023/10/10 11:55:52;;;;;;;12.10;10.80;;;;;;;;;;5092391;28;20601;-66
2023/10/10 11:58:20;;;;;;;12.00;10.07;;;;;;;;;;5091695;28;21163;-66
2023/10/10 12:01:03;;;;;;;19.93;10.20;;;;;;;;;;5091429;28;20681;-66
2023/10/10 12:03:41;;;;;;;20.73;10.70;;;;;;;;;;5081909;28;21172;-66
2023/10/10 12:06:14;;;;;;;14.60;10.63;;;;;;;;;;5073645;28;20625;-66
2023/10/10 12:08:46;;;;;;;15.00;10.90;;;;;;;;;;5090523;28;20597;-66
2023/10/10 12:11:19;;;;;;;15.07;10.57;;;;;;;;;;5091910;28;20679;-66
2023/10/10 12:13:48;;;;;;;15.60;10.30;;;;;;;;;;5091526;28;20913;-66
2023/10/10 12:16:18;;;;;;;14.13;10.90;;;;;;;;;;5091941;28;20629;-66
2023/10/10 12:18:49;;;;;;;16.00;11.70;;;;;;;;;;5090904;28;21238;-66
2023/10/10 12:21:20;;;;;;;12.47;11.20;;;;;;;;;;5087031;28;20621;-66
2023/10/10 12:23:49;;;;;;;12.43;11.33;;;;;;;;;;5079180;28;21056;-66
2023/10/10 12:26:18;;;;;;;14.07;12.60;;;;;;;;;;5091330;28;20644;-66
2023/10/10 12:28:48;;;;;;;12.60;11.43;;;;;;;;;;5091556;28;20622;-66
2023/10/10 12:31:17;;;;;;;13.17;11.17;;;;;;;;;;5073241;28;21306;-66
2023/10/10 12:33:48;;;;;;;16.77;12.10;;;;;;;;;;5091671;28;20613;-66
2023/10/10 12:36:16;;;;;;;13.63;12.20;;;;;;;;;;5091268;28;20616;-66
2023/10/10 12:38:48;;;;;;;13.93;12.67;;;;;;;;;;5088405;28;21240;-66
2023/10/10 12:41:20;;;;;;;19.83;11.70;;;;;;;;;;5059763;28;20616;-66
2023/10/10 12:43:48;;;;;;;15.83;11.63;;;;;;;;;;5091265;28;20645;-66
2023/10/10 12:46:20;;;;;;;29.73;13.57;;;;;;;;;;5059137;28;20640;-66
2023/10/10 12:48:51;;;;;;;16.23;12.63;;;;;;;;;;5091454;28;21170;-66
2023/10/10 12:51:22;;;;;;;14.23;12.90;;;;;;;;;;5090477;28;20655;-66
2023/10/10 12:53:59;;;;;;;14.67;12.97;;;;;;;;;;5073814;28;20605;-66
2023/10/10 12:56:28;;;;;;;20.23;11.93;;;;;;;;;;5090656;28;20613;-65
2023/10/10 12:59:00;;;;;;;15.50;13.53;;;;;;;;;;5090433;28;20918;-66
2023/10/10 13:01:32;;;;;;;15.10;13.37;;;;;;;;;;5089091;28;20613;-66
2023/10/10 13:04:07;;;;;;;13.40;12.17;;;;;;;;;;5090456;28;20608;-66
2023/10/10 13:06:36;;;;;;;17.87;13.93;;;;;;;;;;5088931;28;20606;-66
2023/10/10 13:09:05;;;;;;;19.03;13.60;;;;;;;;;;5091934;28;20963;-66
2023/10/10 13:11:36;;;;;;;14.03;12.73;;;;;;;;;;5089483;28;21305;-67
2023/10/10 13:14:10;;;;;;;13.73;12.53;;;;;;;;;;5086194;28;20694;-66
2023/10/10 13:16:53;;;;;;;13.70;12.40;;;;;;;;;;5089733;28;20638;-66
2023/10/10 13:19:21;;;;;;;15.90;13.37;;;;;;;;;;5090448;28;20597;-66
2023/10/10 13:21:52;;;;;;;13.13;12.03;;;;;;;;;;5070045;28;20610;-65
2023/10/10 13:24:20;;;;;;;14.83;13.30;;;;;;;;;;5070843;28;20587;-65
2023/10/10 13:26:49;;;;;;;20.13;13.60;;;;;;;;;;5070351;28;20668;-66
2023/10/10 13:29:17;;;;;;;21.93;13.60;;;;;;;;;;5072883;28;20623;-66
2023/10/10 13:31:47;;;;;;;14.13;12.67;;;;;;;;;;5085678;28;21034;-66
2023/10/10 13:34:16;;;;;;;17.53;13.53;;;;;;;;;;5091036;28;20620;-66
2023/10/10 13:36:44;;;;;;;18.20;13.53;;;;;;;;;;5090528;28;20606;-66
2023/10/10 13:39:16;;;;;;;15.80;13.40;;;;;;;;;;5090386;28;20605;-66
2023/10/10 13:41:44;;;;;;;19.93;13.97;;;;;;;;;;5090704;28;20578;-65
2023/10/10 13:44:12;;;;;;;14.60;13.30;;;;;;;;;;5082417;28;20981;-66
2023/10/10 13:46:40;;;;;;;18.63;13.77;;;;;;;;;;5087448;28;20693;-68
2023/10/10 13:49:12;;;;;;;14.50;13.00;;;;;;;;;;5109079;28;21037;-67
2023/10/10 13:51:40;;;;;;;17.03;13.60;;;;;;;;;;5104597;28;20642;-67
2023/10/10 13:54:09;;;;;;;16.10;13.40;;;;;;;;;;5101790;28;20627;-66
2023/10/10 13:56:37;;;;;;;16.73;13.50;;;;;;;;;;5102020;28;20640;-68
2023/10/10 13:59:06;;;;;;;14.60;13.40;;;;;;;;;;5104267;28;20664;-68
2023/10/10 14:01:39;;;;;;;13.70;12.50;;;;;;;;;;5102320;28;20956;-68
2023/10/10 14:04:15;;;;;;;15.77;12.80;;;;;;;;;;5095224;28;20614;-67
2023/10/10 14:06:48;;;;;;;17.33;12.93;;;;;;;;;;5099968;28;20617;-68
2023/10/10 14:09:22;;;;;;;15.10;12.93;;;;;;;;;;5093223;28;20594;-68
2023/10/10 14:11:51;;;;;;;14.90;13.60;;;;;;;;;;5106863;28;20685;-67
2023/10/10 14:14:19;;;;;;;13.30;12.30;;;;;;;;;;5093827;28;20630;-68
2023/10/10 14:16:48;;;;;;;14.50;13.00;;;;;;;;;;5103785;28;20657;-67
2023/10/10 14:19:16;;;;;;;12.90;11.70;;;;;;;;;;5108563;28;20630;-67
2023/10/10 14:21:47;;;;;;;15.00;12.50;;;;;;;;;;5100448;28;21092;-67
2023/10/10 14:24:15;;;;;;;15.43;13.53;;;;;;;;;;5109811;28;20633;-68
2023/10/10 14:26:44;;;;;;;19.30;13.70;;;;;;;;;;5086714;28;20698;-67
2023/10/10 14:29:13;;;;;;;15.03;13.70;;;;;;;;;;5102437;28;20617;-68
2023/10/10 14:31:43;;;;;;;17.53;13.20;;;;;;;;;;5082279;28;20625;-68
2023/10/10 14:34:19;;;;;;;14.70;13.30;;;;;;;;;;5098841;28;20598;-68
2023/10/10 14:36:51;;;;;;;14.10;13.00;;;;;;;;;;5078635;28;20586;-68
2023/10/10 14:39:29;;;;;;;15.03;13.63;;;;;;;;;;5096880;28;20618;-68
2023/10/10 14:41:58;;;;;;;15.70;12.80;;;;;;;;;;5084943;28;20627;-68
2023/10/10 14:44:27;;;;;;;14.87;13.47;;;;;;;;;;5098221;28;20677;-68
2023/10/10 14:46:55;;;;;;;14.63;13.23;;;;;;;;;;5097570;28;20629;-69
2023/10/10 14:49:29;;;;;;;21.67;13.70;;;;;;;;;;5096937;28;20618;-67
2023/10/10 14:52:03;;;;;;;13.67;12.37;;;;;;;;;;5105284;28;20601;-68
2023/10/10 14:54:37;;;;;;;14.97;13.80;;;;;;;;;;5101338;28;20598;-68
2023/10/10 14:57:05;;;;;;;17.20;14.23;;;;;;;;;;5099729;28;21007;-69
2023/10/10 14:59:35;;;;;;;14.90;13.37;;;;;;;;;;5117581;28;20630;-69
2023/10/10 15:02:04;;;;;;;20.67;14.20;;;;;;;;;;5116921;28;20597;-69
2023/10/10 15:04:35;;;;;;;16.43;13.67;;;;;;;;;;5107616;28;20653;-68
2023/10/10 15:07:04;;;;;;;17.53;13.53;;;;;;;;;;5096760;28;20605;-68
2023/10/10 15:09:35;;;;;;;14.17;12.70;;;;;;;;;;5106668;28;20597;-68
2023/10/10 15:12:07;;;;;;;13.60;12.50;;;;;;;;;;5073104;28;20649;-68
2023/10/10 15:14:35;;;;;;;14.77;13.27;;;;;;;;;;5083385;28;20615;-68
2023/10/10 15:17:04;;;;;;;16.53;12.30;;;;;;;;;;5089039;28;20945;-69
2023/10/10 15:19:33;;;;;;;17.60;12.27;;;;;;;;;;5077787;28;20599;-68
2023/10/10 15:22:01;;;;;;;14.80;13.50;;;;;;;;;;5086538;28;20634;-68
2023/10/10 15:24:33;;;;;;;14.67;13.30;;;;;;;;;;5097015;28;20630;-68
2023/10/10 15:27:01;;;;;;;14.37;13.27;;;;;;;;;;5096483;28;20630;-68
2023/10/10 15:29:32;;;;;;;14.33;12.93;;;;;;;;;;5096608;28;20586;-68
2023/10/10 15:32:03;;;;;;;15.67;12.00;;;;;;;;;;5082914;28;20627;-67
2023/10/10 15:34:31;;;;;;;13.10;12.00;;;;;;;;;;5076892;28;20619;-68
2023/10/10 15:37:00;;;;;;;13.97;11.60;;;;;;;;;;5077205;28;20633;-67
2023/10/10 15:39:29;;;;;;;12.70;11.60;;;;;;;;;;5076612;28;20638;-68
2023/10/10 15:42:04;;;;;;;14.03;11.93;;;;;;;;;;5076424;28;20634;-68
2023/10/10 15:44:32;;;;;;;13.23;12.00;;;;;;;;;;5083097;28;20673;-68
2023/10/10 15:47:04;;;;;;;13.47;11.70;;;;;;;;;;5096218;28;20611;-67
2023/10/10 15:49:32;;;;;;;18.83;11.80;;;;;;;;;;5095267;28;20592;-69
2023/10/10 15:52:03;;;;;;;13.23;11.90;;;;;;;;;;5085875;28;20625;-68
2023/10/10 15:54:33;;;;;;;16.10;12.07;;;;;;;;;;5096989;28;20645;-68
2023/10/10 15:57:06;;;;;;;13.00;11.90;;;;;;;;;;5085709;28;20626;-68
2023/10/10 15:59:35;;;;;;;14.60;10.73;;;;;;;;;;5078987;28;20575;-67
2023/10/10 16:02:08;;;;;;;13.97;12.23;;;;;;;;;;5088326;28;20635;-68
2023/10/10 16:04:42;;;;;;;12.43;11.23;;;;;;;;;;5077143;28;20631;-67
2023/10/10 16:07:10;;;;;;;14.43;11.90;;;;;;;;;;5081737;28;20635;-67
2023/10/10 16:09:38;;;;;;;16.87;12.40;;;;;;;;;;5077604;28;20621;-67
2023/10/10 16:12:12;;;;;;;13.60;12.10;;;;;;;;;;5099865;28;20661;-67
2023/10/10 16:14:40;;;;;;;12.20;11.00;;;;;;;;;;5083252;28;20677;-67
2023/10/10 16:17:15;;;;;;;15.10;11.27;;;;;;;;;;5101036;28;20609;-68
2023/10/10 16:19:43;;;;;;;15.33;11.03;;;;;;;;;;5117546;28;20631;-65
2023/10/10 16:22:13;;;;;;;16.40;11.70;;;;;;;;;;5111712;28;21061;-66
2023/10/10 16:24:41;;;;;;;15.43;10.67;;;;;;;;;;5100934;28;20626;-66
2023/10/10 16:27:10;;;;;;;15.03;11.57;;;;;;;;;;5116656;28;20629;-65
2023/10/10 16:29:39;;;;;;;11.27;10.27;;;;;;;;;;5099800;28;20631;-67
2023/10/10 16:32:13;;;;;;;13.27;10.20;;;;;;;;;;5116909;28;20621;-67
2023/10/10 16:34:41;;;;;;;12.40;10.17;;;;;;;;;;5112722;28;20666;-66
2023/10/10 16:37:13;;;;;;;15.80;9.83;;;;;;;;;;5109470;28;20641;-67
2023/10/10 16:39:44;;;;;;;18.10;9.47;;;;;;;;;;5113403;28;20624;-67
2023/10/10 16:42:15;;;;;;;11.50;9.90;;;;;;;;;;5107925;28;20626;-67
2023/10/10 16:44:44;;;;;;;23.63;10.03;;;;;;;;;;5094683;28;20650;-67
2023/10/10 16:47:16;;;;;;;10.83;9.80;;;;;;;;;;5100438;28;20656;-67
2023/10/10 16:49:44;;;;;;;9.23;8.20;;;;;;;;;;5116289;28;20578;-66
2023/10/10 16:52:13;;;;;;;10.90;9.80;;;;;;;;;;5106883;28;20654;-67
2023/10/10 16:54:45;;;;;;;13.23;9.23;;;;;;;;;;5108150;28;20680;-67
2023/10/10 16:57:15;;;;;;;20.47;9.70;;;;;;;;;;5085233;28;20621;-67
2023/10/10 16:59:43;;;;;;;11.50;8.07;;;;;;;;;;5107646;28;20641;-69
2023/10/10 17:02:12;;;;;;;18.17;8.93;;;;;;;;;;5109797;28;20644;-68